Time;durP1;ratioP1;P1;durP2;ratioP2;P2;SDS_P1;SDS_P2;PMS_P1;PMS_P2;Temp;Humidity;BMP_temperature;BMP_pressure;BME280_temperature;BME280_humidity;BME280_pressure;Samples;Min_cycle;Max_cycle;Signal;HPM_P1;HPM_P2
2021/12/15 00:02:09;;;;;;;34.53;13.52;;;10.80;99.90;;;;;;5081240;28;20028;-40
2021/12/15 00:04:35;;;;;;;38.75;13.68;;;10.80;99.90;;;;;;5092374;28;20029;-40
2021/12/15 00:07:00;;;;;;;34.95;14.40;;;10.80;99.90;;;;;;5092708;28;20103;-41
2021/12/15 00:09:27;;;;;;;37.70;14.57;;;10.80;99.90;;;;;;5092873;28;20023;-41
2021/12/15 00:11:52;;;;;;;38.13;13.63;;;10.80;99.90;;;;;;5092088;28;20061;-40
2021/12/15 00:14:19;;;;;;;33.72;14.40;;;10.80;99.90;;;;;;5092629;28;20426;-41
2021/12/15 00:16:46;;;;;;;35.05;13.85;;;10.80;99.90;;;;;;5092626;28;20467;-40
2021/12/15 00:19:12;;;;;;;33.40;13.70;;;10.80;99.90;;;;;;5092112;28;20031;-42
2021/12/15 00:21:38;;;;;;;31.48;12.85;;;10.80;99.90;;;;;;5092671;28;20016;-40
2021/12/15 00:24:06;;;;;;;33.42;13.75;;;10.80;99.90;;;;;;5092562;28;20632;-40
2021/12/15 00:26:33;;;;;;;39.50;13.48;;;10.80;99.90;;;;;;5092065;28;20070;-40
2021/12/15 00:28:59;;;;;;;36.75;15.40;;;10.90;99.90;;;;;;5092512;28;20391;-41
2021/12/15 00:31:24;;;;;;;35.22;13.50;;;10.80;99.90;;;;;;5087202;28;20025;-40
2021/12/15 00:33:50;;;;;;;34.33;13.93;;;10.90;99.90;;;;;;5071827;28;20114;-40
2021/12/15 00:36:16;;;;;;;43.95;17.35;;;10.90;99.90;;;;;;5073944;28;20031;-40
2021/12/15 00:38:42;;;;;;;29.42;13.65;;;10.90;99.90;;;;;;5075879;28;20025;-41
2021/12/15 00:41:08;;;;;;;38.72;13.65;;;10.80;99.90;;;;;;5076186;28;20032;-40
2021/12/15 00:43:36;;;;;;;36.08;13.98;;;10.80;99.90;;;;;;5075736;28;20020;-40
2021/12/15 00:46:02;;;;;;;34.45;14.48;;;10.90;99.90;;;;;;5075663;28;20025;-43
2021/12/15 00:48:28;;;;;;;32.88;13.05;;;10.90;99.90;;;;;;5075516;28;20021;-40
2021/12/15 00:50:54;;;;;;;37.75;15.32;;;10.90;99.90;;;;;;5077651;28;20382;-39
2021/12/15 00:53:20;;;;;;;35.58;14.23;;;10.90;99.90;;;;;;5095068;28;20024;-40
2021/12/15 00:55:46;;;;;;;44.53;14.90;;;10.90;99.90;;;;;;5095785;28;20100;-40
2021/12/15 00:58:13;;;;;;;36.58;12.95;;;10.80;99.90;;;;;;5095564;28;20027;-40
2021/12/15 01:00:53;;;;;;;32.88;12.77;;;10.90;99.90;;;;;;5095328;28;20020;-40
2021/12/15 01:03:19;;;;;;;33.08;11.98;;;10.90;99.90;;;;;;5095689;28;20032;-39
2021/12/15 01:05:48;;;;;;;28.92;12.75;;;10.80;99.90;;;;;;5095792;28;20027;-41
2021/12/15 01:08:21;;;;;;;43.55;13.95;;;10.90;99.90;;;;;;5094896;28;20116;-41
2021/12/15 01:11:08;;;;;;;31.00;12.27;;;10.80;99.90;;;;;;5091270;28;20054;-40
2021/12/15 01:21:55;;;;;;;32.28;11.57;;;10.90;99.90;;;;;;5074998;28;20044;-40
2021/12/15 01:24:21;;;;;;;39.70;14.40;;;10.90;99.90;;;;;;5075350;28;20055;-40
2021/12/15 01:26:46;;;;;;;28.58;10.60;;;10.80;99.90;;;;;;5074972;28;20056;-42
2021/12/15 01:29:12;;;;;;;36.85;12.80;;;10.90;99.90;;;;;;5074463;28;20024;-41
2021/12/15 01:31:38;;;;;;;31.05;12.27;;;10.90;99.90;;;;;;5074923;28;20379;-41
2021/12/15 01:34:03;;;;;;;33.55;14.18;;;10.90;99.90;;;;;;5074819;28;20025;-40
2021/12/15 01:36:29;;;;;;;25.80;11.80;;;10.90;99.90;;;;;;5074414;28;20510;-41
2021/12/15 01:38:55;;;;;;;28.42;12.27;;;10.90;99.90;;;;;;5074823;28;20017;-40
2021/12/15 01:41:23;;;;;;;29.52;10.93;;;10.90;99.90;;;;;;5074803;28;20418;-40
2021/12/15 01:46:54;;;;;;;33.65;12.60;;;10.90;99.90;;;;;;5079206;28;20032;-40
2021/12/15 01:49:32;;;;;;;27.65;11.77;;;10.90;99.90;;;;;;5094098;28;20367;-40
2021/12/15 01:52:06;;;;;;;28.42;11.15;;;11.00;99.90;;;;;;5094590;28;20487;-41
2021/12/15 01:54:34;;;;;;;34.45;11.75;;;10.90;99.90;;;;;;5094735;28;20133;-42
2021/12/15 01:57:01;;;;;;;32.08;12.00;;;10.90;99.90;;;;;;5093915;28;20020;-40
2021/12/15 01:59:29;;;;;;;27.17;11.50;;;10.90;99.90;;;;;;5094419;28;20048;-39
2021/12/15 02:01:55;;;;;;;26.73;11.50;;;10.90;99.90;;;;;;5094614;28;20028;-42
2021/12/15 02:04:21;;;;;;;32.55;11.73;;;10.90;99.90;;;;;;5093871;28;20022;-40
2021/12/15 02:06:48;;;;;;;30.77;12.73;;;11.00;99.90;;;;;;5084527;28;20112;-39
2021/12/15 02:09:41;;;;;;;30.27;11.48;;;11.00;99.90;;;;;;5074162;28;20399;-40
2021/12/15 02:12:04;;;;;;;32.55;13.60;;;11.00;99.90;;;;;;5073175;28;20110;-39
2021/12/15 02:14:31;;;;;;;30.55;11.10;;;11.00;99.90;;;;;;5074051;28;20029;-40
2021/12/15 02:16:58;;;;;;;29.55;11.98;;;10.90;99.90;;;;;;5073905;28;20185;-40
2021/12/15 02:19:24;;;;;;;29.83;11.77;;;10.90;99.90;;;;;;5073418;28;20503;-39
2021/12/15 02:21:50;;;;;;;26.70;10.43;;;10.90;99.90;;;;;;5073932;28;20040;-41
2021/12/15 02:24:15;;;;;;;31.08;11.63;;;10.90;99.90;;;;;;5073807;28;20059;-40
2021/12/15 02:26:47;;;;;;;30.08;10.95;;;10.90;99.90;;;;;;5073405;28;20013;-41
2021/12/15 02:29:17;;;;;;;32.42;12.55;;;10.90;99.90;;;;;;5073857;28;20077;-40
2021/12/15 02:37:17;;;;;;;32.40;10.63;;;10.90;99.90;;;;;;5073837;28;20119;-41
2021/12/15 02:39:53;;;;;;;31.98;12.27;;;10.90;99.90;;;;;;5073006;28;20528;-41
2021/12/15 02:42:21;;;;;;;31.77;11.45;;;11.00;99.90;;;;;;5073572;28;20021;-40
2021/12/15 02:44:47;;;;;;;34.38;12.80;;;10.90;99.90;;;;;;5073640;28;20038;-42
2021/12/15 02:47:16;;;;;;;30.23;11.23;;;11.00;99.90;;;;;;5072909;28;20016;-40
2021/12/15 02:49:42;;;;;;;31.13;11.43;;;10.90;99.90;;;;;;5073462;28;20548;-42
2021/12/15 02:52:08;;;;;;;29.33;11.05;;;11.00;99.90;;;;;;5073211;28;20383;-40
2021/12/15 02:54:34;;;;;;;29.27;11.55;;;11.00;99.90;;;;;;5072861;28;20025;-43
2021/12/15 02:57:06;;;;;;;28.77;10.80;;;11.00;99.90;;;;;;5073248;28;20493;-40
2021/12/15 02:59:44;;;;;;;25.45;10.20;;;11.00;99.90;;;;;;5072851;28;20396;-41
2021/12/15 03:02:53;;;;;;;31.25;12.48;;;11.00;99.90;;;;;;5073328;28;20028;-42
2021/12/15 03:05:22;;;;;;;30.70;12.00;;;11.00;99.90;;;;;;5092495;28;20458;-40
2021/12/15 03:08:07;;;;;;;29.13;11.10;;;11.00;99.90;;;;;;5093023;28;20039;-40
2021/12/15 03:16:08;;;;;;;29.15;11.82;;;11.00;99.90;;;;;;5092766;28;20128;-40
2021/12/15 03:18:34;;;;;;;33.38;12.02;;;11.00;99.90;;;;;;5093173;28;20077;-41
2021/12/15 03:21:03;;;;;;;38.85;13.13;;;11.00;99.90;;;;;;5092535;28;20034;-41
2021/12/15 03:23:49;;;;;;;30.40;10.77;;;11.00;99.90;;;;;;5093260;28;20022;-41
2021/12/15 03:26:18;;;;;;;36.38;13.23;;;11.00;99.90;;;;;;5093200;28;20116;-40
2021/12/15 03:39:39;;;;;;;34.70;11.98;;;11.00;99.90;;;;;;5093130;28;20032;-41
2021/12/15 03:42:06;;;;;;;29.33;10.88;;;11.00;99.90;;;;;;5092349;28;20028;-41
2021/12/15 03:44:37;;;;;;;37.90;12.82;;;11.00;99.90;;;;;;5092905;28;20035;-41
2021/12/15 03:47:07;;;;;;;34.38;12.70;;;11.00;99.90;;;;;;5092967;28;20039;-41
2021/12/15 03:49:33;;;;;;;34.35;11.20;;;11.00;99.90;;;;;;5092570;28;20024;-41
2021/12/15 03:51:59;;;;;;;35.00;13.25;;;11.00;99.90;;;;;;5092744;28;20033;-40
2021/12/15 03:54:25;;;;;;;34.88;12.35;;;10.90;99.90;;;;;;5092928;28;20077;-42
2021/12/15 03:56:50;;;;;;;35.22;13.38;;;10.90;99.90;;;;;;5092350;28;20073;-42
2021/12/15 03:59:18;;;;;;;44.05;14.10;;;11.00;99.90;;;;;;5092564;28;20101;-40
2021/12/15 04:01:45;;;;;;;49.28;14.38;;;11.00;99.90;;;;;;5092884;28;20035;-42
2021/12/15 04:04:10;;;;;;;36.83;13.32;;;10.90;99.90;;;;;;5078973;28;20379;-42
2021/12/15 04:06:39;;;;;;;37.65;14.05;;;10.90;99.90;;;;;;5073094;28;20488;-41
2021/12/15 04:09:06;;;;;;;;;;;10.90;99.90;;;;;;5073004;28;20028;-43
2021/12/15 04:11:34;;;;;;;33.00;12.43;;;10.90;99.90;;;;;;5074091;28;19920;-43
2021/12/15 04:14:03;;;;;;;40.55;15.00;;;10.90;99.90;;;;;;5076359;28;20029;-42
2021/12/15 04:19:01;;;;;;;52.03;16.02;;;11.00;99.90;;;;;;5075634;28;20506;-41
2021/12/15 04:21:27;;;;;;;42.88;14.48;;;10.90;99.90;;;;;;5076382;28;20448;-41
2021/12/15 04:23:56;;;;;;;41.30;14.57;;;10.90;99.90;;;;;;5076103;28;20078;-41
2021/12/15 04:26:22;;;;;;;38.45;15.02;;;10.90;99.90;;;;;;5075586;28;20108;-42
2021/12/15 04:28:49;;;;;;;39.85;15.68;;;10.90;99.90;;;;;;5076030;28;20063;-41
2021/12/15 04:31:19;;;;;;;40.15;14.65;;;10.90;99.90;;;;;;5075118;28;20021;-42
2021/12/15 04:34:05;;;;;;;47.42;16.10;;;10.90;99.90;;;;;;5075425;28;20028;-41
2021/12/15 04:36:36;;;;;;;42.38;14.50;;;10.90;99.90;;;;;;5091756;28;20077;-41
2021/12/15 04:39:04;;;;;;;40.00;16.20;;;10.90;99.90;;;;;;5094958;28;20028;-41
2021/12/15 04:41:30;;;;;;;46.50;16.15;;;10.90;99.90;;;;;;5095488;28;20359;-42
2021/12/15 04:43:58;;;;;;;41.90;16.17;;;10.90;99.90;;;;;;5095483;28;20028;-42
2021/12/15 04:46:30;;;;;;;44.90;15.65;;;10.90;99.90;;;;;;5094888;28;20016;-42
2021/12/15 04:48:56;;;;;;;44.33;16.13;;;10.90;99.90;;;;;;5095394;28;20125;-41
2021/12/15 04:51:22;;;;;;;46.85;16.48;;;10.90;99.90;;;;;;5094991;28;20028;-43
2021/12/15 04:53:49;;;;;;;45.28;17.25;;;10.90;99.90;;;;;;5094777;28;20463;-42
2021/12/15 04:56:15;;;;;;;50.00;17.33;;;10.90;99.90;;;;;;5091814;28;20593;-41
2021/12/15 04:58:41;;;;;;;47.63;17.67;;;10.90;99.90;;;;;;5094833;28;20056;-42
2021/12/15 05:01:09;;;;;;;34.90;13.48;;;10.90;99.90;;;;;;5094537;28;20016;-42
2021/12/15 05:03:38;;;;;;;42.85;14.55;;;10.90;99.90;;;;;;5094969;28;20020;-41
2021/12/15 05:06:05;;;;;;;46.17;15.20;;;10.90;99.90;;;;;;5094820;28;20012;-42
2021/12/15 05:08:31;;;;;;;44.88;15.23;;;10.90;99.90;;;;;;5094441;28;20016;-41
2021/12/15 05:10:58;;;;;;;50.13;17.50;;;10.90;99.90;;;;;;5094862;28;20055;-40
2021/12/15 05:13:25;;;;;;;44.42;16.02;;;10.90;99.90;;;;;;5094236;28;20047;-42
2021/12/15 05:15:51;;;;;;;44.38;15.02;;;10.90;99.90;;;;;;5078771;28;20017;-42
2021/12/15 05:18:16;;;;;;;49.42;17.52;;;10.90;99.90;;;;;;5074398;28;20078;-41
2021/12/15 05:20:47;;;;;;;45.53;15.30;;;10.90;99.90;;;;;;5074034;28;20502;-42
2021/12/15 05:23:14;;;;;;;43.80;14.68;;;10.90;99.90;;;;;;5073156;28;20028;-42
2021/12/15 05:25:41;;;;;;;44.90;16.43;;;10.90;99.90;;;;;;5074561;28;20107;-42
2021/12/15 05:28:06;;;;;;;41.78;15.10;;;10.90;99.90;;;;;;5073735;28;20074;-41
2021/12/15 05:30:32;;;;;;;38.30;14.55;;;10.90;99.90;;;;;;5074333;28;20021;-42
2021/12/15 05:32:58;;;;;;;45.38;15.10;;;10.90;99.90;;;;;;5074087;28;20086;-41
2021/12/15 05:35:25;;;;;;;49.28;16.10;;;10.90;99.90;;;;;;5087063;28;20379;-42
2021/12/15 05:37:54;;;;;;;43.75;16.98;;;10.90;99.90;;;;;;5094101;28;20362;-41
2021/12/15 05:40:20;;;;;;;45.97;16.10;;;10.90;99.90;;;;;;5094301;28;20012;-43
2021/12/15 05:42:46;;;;;;;40.85;15.73;;;11.00;99.90;;;;;;5093776;28;20466;-41
2021/12/15 05:45:12;;;;;;;50.90;15.85;;;10.90;99.90;;;;;;5094066;28;20023;-41
2021/12/15 05:47:38;;;;;;;49.97;16.65;;;10.90;99.90;;;;;;5094055;28;20125;-43
2021/12/15 05:50:08;;;;;;;43.60;16.30;;;10.90;99.90;;;;;;5093587;28;20020;-41
2021/12/15 05:52:33;;;;;;;42.28;16.80;;;10.90;99.90;;;;;;5094064;28;20036;-41
2021/12/15 05:55:00;;;;;;;50.10;16.50;;;10.90;99.90;;;;;;5081069;28;20490;-41
2021/12/15 05:57:26;;;;;;;46.85;16.02;;;10.90;99.90;;;;;;5073335;28;20017;-42
2021/12/15 05:59:52;;;;;;;37.45;14.43;;;11.00;99.90;;;;;;5073305;28;20040;-41
2021/12/15 06:02:18;;;;;;;47.85;16.77;;;11.00;99.90;;;;;;5073519;28;20032;-42
2021/12/15 06:04:44;;;;;;;42.88;16.58;;;10.90;99.90;;;;;;5073237;28;20059;-44
2021/12/15 06:07:10;;;;;;;42.85;16.63;;;10.90;99.90;;;;;;5073584;28;20483;-42
2021/12/15 06:09:35;;;;;;;44.15;16.67;;;10.90;99.90;;;;;;5073241;28;20032;-44
2021/12/15 06:12:03;;;;;;;41.97;14.68;;;10.90;99.90;;;;;;5078771;28;20379;-41
2021/12/15 06:14:30;;;;;;;42.40;16.80;;;10.90;99.90;;;;;;5092915;28;20401;-42
2021/12/15 06:17:00;;;;;;;46.15;14.98;;;11.00;99.90;;;;;;5089806;28;20032;-42
2021/12/15 06:19:25;;;;;;;40.33;15.20;;;10.90;99.90;;;;;;5092978;28;20043;-41
2021/12/15 06:21:51;;;;;;;42.53;16.10;;;10.90;99.90;;;;;;5092856;28;20105;-42
2021/12/15 06:24:17;;;;;;;48.05;16.58;;;10.90;99.90;;;;;;5091797;28;20024;-42
2021/12/15 06:26:43;;;;;;;43.38;17.00;;;10.90;99.90;;;;;;5093421;28;20020;-43
2021/12/15 06:29:08;;;;;;;49.17;18.33;;;11.00;99.90;;;;;;5093263;28;20423;-42
2021/12/15 06:31:34;;;;;;;46.03;16.95;;;10.90;99.90;;;;;;5091750;28;20041;-41
2021/12/15 06:34:00;;;;;;;51.88;17.70;;;10.90;99.90;;;;;;5090261;28;20429;-41
2021/12/15 06:36:27;;;;;;;47.95;18.88;;;10.90;99.90;;;;;;5089280;28;20121;-42
2021/12/15 06:38:54;;;;;;;46.38;16.73;;;10.90;99.90;;;;;;5091324;28;20107;-43
2021/12/15 06:41:21;;;;;;;48.22;17.05;;;10.90;99.90;;;;;;5092018;28;20061;-42
2021/12/15 06:43:51;;;;;;;43.30;17.40;;;10.90;99.90;;;;;;5091802;28;20546;-43
2021/12/15 07:00:01;;;;;;;45.00;16.55;;;10.90;99.90;;;;;;5091394;28;20048;-41
2021/12/15 07:02:27;;;;;;;46.38;17.58;;;10.80;99.90;;;;;;5091926;28;20089;-42
2021/12/15 07:04:53;;;;;;;44.50;17.40;;;10.90;99.90;;;;;;5083511;28;20028;-42
2021/12/15 07:07:18;;;;;;;51.45;18.38;;;10.90;99.90;;;;;;5081810;28;20051;-43
2021/12/15 07:09:44;;;;;;;39.05;14.73;;;10.90;99.90;;;;;;5071662;28;20369;-42
2021/12/15 07:12:09;;;;;;;45.30;15.45;;;10.80;99.90;;;;;;5087922;28;20111;-41
2021/12/15 07:14:35;;;;;;;46.85;17.92;;;10.90;99.90;;;;;;5091525;28;20024;-41
2021/12/15 07:17:08;;;;;;;48.38;17.73;;;10.80;99.90;;;;;;5091991;28;20016;-41
2021/12/15 07:19:51;;;;;;;52.20;17.50;;;10.90;99.90;;;;;;5091587;28;20551;-42
2021/12/15 07:22:30;;;;;;;41.80;15.25;;;10.90;99.90;;;;;;5091323;28;20093;-42
2021/12/15 07:24:56;;;;;;;45.60;15.85;;;10.90;99.90;;;;;;5091669;28;20447;-44
2021/12/15 07:27:22;;;;;;;49.17;16.48;;;10.90;99.90;;;;;;5091161;28;20026;-43
2021/12/15 07:29:48;;;;;;;50.58;16.67;;;10.90;99.90;;;;;;5091642;28;20024;-41
2021/12/15 07:32:14;;;;;;;44.10;17.33;;;10.90;99.90;;;;;;5091651;28;20028;-41
2021/12/15 07:34:40;;;;;;;40.60;14.77;;;10.90;99.90;;;;;;5091186;28;20023;-42
2021/12/15 07:37:05;;;;;;;43.35;16.52;;;10.90;99.90;;;;;;5091754;28;20024;-42
2021/12/15 07:39:31;;;;;;;35.05;13.07;;;10.90;99.90;;;;;;5091751;28;20016;-43
2021/12/15 07:42:09;;;;;;;40.13;15.15;;;10.90;99.90;;;;;;5090813;28;20081;-43
2021/12/15 07:44:36;;;;;;;50.45;16.13;;;10.90;99.90;;;;;;5091595;28;20077;-41
2021/12/15 07:47:03;;;;;;;41.38;14.18;;;10.90;99.90;;;;;;5094009;28;20063;-42
2021/12/15 07:49:30;;;;;;;32.67;12.75;;;10.90;99.90;;;;;;5095239;28;20028;-41
2021/12/15 07:52:01;;;;;;;33.22;13.32;;;10.90;99.90;;;;;;5095628;28;20064;-41
2021/12/15 07:54:28;;;;;;;35.28;15.10;;;10.90;99.90;;;;;;5092907;28;20123;-43
2021/12/15 07:56:54;;;;;;;41.30;15.77;;;10.90;99.90;;;;;;5074740;28;20032;-42
2021/12/15 07:59:20;;;;;;;34.42;13.05;;;10.90;99.90;;;;;;5075052;28;20118;-42
2021/12/15 08:01:46;;;;;;;37.47;14.73;;;10.90;99.90;;;;;;5075225;28;20099;-41
2021/12/15 08:04:11;;;;;;;29.90;13.77;;;10.90;99.90;;;;;;5074676;28;20533;-42
2021/12/15 08:06:37;;;;;;;34.88;13.23;;;10.90;99.90;;;;;;5079901;28;20035;-43
2021/12/15 08:09:04;;;;;;;34.20;12.10;;;10.90;99.90;;;;;;5086110;28;20020;-41
2021/12/15 08:11:30;;;;;;;32.13;13.60;;;10.90;99.90;;;;;;5094224;28;20127;-42
2021/12/15 08:13:57;;;;;;;35.15;13.80;;;10.90;99.90;;;;;;5092416;28;20095;-42
2021/12/15 08:16:23;;;;;;;38.20;12.95;;;10.90;99.90;;;;;;5094149;28;20050;-42
2021/12/15 08:18:49;;;;;;;34.47;12.25;;;10.90;99.90;;;;;;5094547;28;20058;-42
2021/12/15 08:21:15;;;;;;;38.80;13.88;;;10.90;99.90;;;;;;5094597;28;20036;-42
2021/12/15 08:23:41;;;;;;;44.50;14.55;;;10.90;99.90;;;;;;5093686;28;20031;-42
2021/12/15 08:26:06;;;;;;;41.50;12.77;;;10.90;99.90;;;;;;5094652;28;20394;-41
2021/12/15 08:28:32;;;;;;;34.60;12.27;;;10.90;99.90;;;;;;5095869;28;20130;-42
2021/12/15 08:30:59;;;;;;;34.95;12.85;;;10.90;99.90;;;;;;5095066;28;20024;-42
2021/12/15 08:33:26;;;;;;;30.20;12.43;;;10.90;99.90;;;;;;5095506;28;20114;-42
2021/12/15 08:36:01;;;;;;;37.55;12.90;;;10.90;99.90;;;;;;5095514;28;20024;-42
2021/12/15 08:38:32;;;;;;;30.92;11.82;;;10.90;99.90;;;;;;5094133;28;20024;-43
2021/12/15 08:40:59;;;;;;;33.67;12.55;;;10.90;99.90;;;;;;5094169;28;20024;-42
2021/12/15 08:43:25;;;;;;;33.47;11.85;;;11.00;99.90;;;;;;5094120;28;20028;-43
2021/12/15 08:45:55;;;;;;;34.03;12.27;;;11.00;99.90;;;;;;5090657;28;20030;-41
2021/12/15 08:48:21;;;;;;;31.52;12.90;;;11.00;99.90;;;;;;5092402;28;20467;-43
2021/12/15 08:50:47;;;;;;;28.83;11.93;;;11.00;99.90;;;;;;5093445;28;20031;-44
2021/12/15 08:53:13;;;;;;;33.08;12.60;;;11.00;99.90;;;;;;5093501;28;20028;-43
2021/12/15 08:55:41;;;;;;;37.63;13.82;;;11.00;99.90;;;;;;5093625;28;20454;-42
2021/12/15 08:58:10;;;;;;;30.85;13.00;;;11.00;99.90;;;;;;5093377;28;20013;-44
2021/12/15 09:00:38;;;;;;;28.13;12.80;;;11.00;99.90;;;;;;5093204;28;20036;-43
2021/12/15 09:03:04;;;;;;;33.15;14.02;;;11.00;99.90;;;;;;5089545;28;20028;-43
2021/12/15 09:05:30;;;;;;;37.25;13.18;;;11.00;99.90;;;;;;5093059;28;20028;-42
2021/12/15 09:07:58;;;;;;;33.85;11.85;;;11.00;99.90;;;;;;5091825;28;20017;-43
2021/12/15 09:10:27;;;;;;;28.73;12.48;;;11.00;99.90;;;;;;5093619;28;20020;-42
2021/12/15 09:12:53;;;;;;;35.75;14.07;;;11.00;99.90;;;;;;5090289;28;20024;-42
2021/12/15 09:15:19;;;;;;;35.47;13.40;;;11.00;99.90;;;;;;5093517;28;20103;-42
2021/12/15 09:17:45;;;;;;;32.58;11.77;;;11.10;99.90;;;;;;5093278;28;20020;-42
2021/12/15 09:20:14;;;;;;;36.35;13.68;;;11.10;99.90;;;;;;5090410;28;20020;-42
2021/12/15 09:22:40;;;;;;;31.33;12.15;;;11.10;99.90;;;;;;5093180;28;20031;-43
2021/12/15 09:25:09;;;;;;;27.40;10.35;;;11.10;99.90;;;;;;5093411;28;20058;-42
2021/12/15 09:27:35;;;;;;;;;;;11.10;99.90;;;;;;5093130;28;20024;-42
2021/12/15 09:30:01;;;;;;;23.40;11.10;;;11.10;99.90;;;;;;5093370;28;19957;-42
2021/12/15 09:32:26;;;;;;;30.38;11.60;;;11.10;99.90;;;;;;5093096;28;20040;-41
2021/12/15 09:34:53;;;;;;;32.67;11.77;;;11.10;99.90;;;;;;5092470;28;20016;-42
2021/12/15 09:37:19;;;;;;;30.88;12.73;;;11.10;99.90;;;;;;5093318;28;20078;-42
2021/12/15 09:39:45;;;;;;;37.83;13.35;;;11.20;99.90;;;;;;5092884;28;20028;-42
2021/12/15 09:42:16;;;;;;;32.65;12.75;;;11.10;99.90;;;;;;5089948;28;20482;-41
2021/12/15 09:44:43;;;;;;;27.85;11.23;;;11.20;99.90;;;;;;5092803;28;20032;-43
2021/12/15 10:03:48;;;;;;;26.25;10.30;;;11.20;99.90;;;;;;5093548;28;20081;-41
2021/12/15 10:06:48;;;;;;;27.05;10.05;;;11.20;99.90;;;;;;5093257;28;20097;-43
2021/12/15 10:11:49;;;;;;;28.45;8.90;;;11.20;99.90;;;;;;5091099;28;20106;-43
2021/12/15 10:19:52;;;;;;;28.92;11.18;;;11.30;99.90;;;;;;5092045;28;20032;-42
2021/12/15 10:22:47;;;;;;;23.88;11.07;;;11.30;99.90;;;;;;5092304;28;20031;-43
2021/12/15 10:25:17;;;;;;;27.35;11.35;;;11.40;99.90;;;;;;5088792;28;20522;-41
2021/12/15 10:27:48;;;;;;;28.75;10.27;;;11.40;99.90;;;;;;5087836;28;20020;-42
2021/12/15 10:30:19;;;;;;;22.17;8.48;;;11.40;99.90;;;;;;5089595;28;20547;-42
2021/12/15 10:32:47;;;;;;;21.23;9.73;;;11.40;99.90;;;;;;5091558;28;20072;-42
2021/12/15 10:35:22;;;;;;;23.63;9.70;;;11.40;99.90;;;;;;5090277;28;20073;-42
2021/12/15 10:38:11;;;;;;;27.58;9.15;;;11.40;99.90;;;;;;5091266;28;20467;-42
2021/12/15 10:41:01;;;;;;;20.67;9.48;;;11.40;99.90;;;;;;5088633;28;20028;-42
2021/12/15 10:43:49;;;;;;;19.20;7.22;;;11.40;99.90;;;;;;5091182;28;20060;-42
2021/12/15 10:46:19;;;;;;;22.48;9.50;;;11.40;99.90;;;;;;5089619;28;20061;-42
2021/12/15 10:48:47;;;;;;;22.77;8.60;;;11.40;99.90;;;;;;5091597;28;20028;-43
2021/12/15 10:51:25;;;;;;;20.83;8.65;;;11.40;99.90;;;;;;5091444;28;20023;-43
2021/12/15 10:53:53;;;;;;;24.08;9.07;;;11.40;99.90;;;;;;5088972;28;20479;-43
2021/12/15 10:56:21;;;;;;;26.15;11.43;;;11.40;99.90;;;;;;5091955;28;20020;-43
2021/12/15 10:58:54;;;;;;;21.95;9.73;;;11.50;99.90;;;;;;5090472;28;20086;-41
2021/12/15 11:01:40;;;;;;;22.13;9.55;;;11.40;99.90;;;;;;5074180;28;20379;-42
2021/12/15 11:04:20;;;;;;;24.33;9.73;;;11.50;99.90;;;;;;5091859;28;20020;-42
2021/12/15 11:07:00;;;;;;;20.73;7.40;;;11.50;99.90;;;;;;5090755;28;20016;-45
2021/12/15 11:09:26;;;;;;;18.77;8.35;;;11.50;99.90;;;;;;5085911;28;20021;-42
2021/12/15 11:12:01;;;;;;;19.98;10.32;;;11.50;99.90;;;;;;5085189;28;20394;-42
2021/12/15 11:14:31;;;;;;;23.90;9.88;;;11.60;99.90;;;;;;5091451;28;20513;-42
2021/12/15 11:17:16;;;;;;;28.13;9.77;;;11.60;99.90;;;;;;5072299;28;20024;-42
2021/12/15 11:19:49;;;;;;;26.08;8.63;;;11.60;99.90;;;;;;5071534;28;20081;-42
2021/12/15 11:22:44;;;;;;;23.13;9.38;;;11.60;99.90;;;;;;5072443;28;20035;-42
2021/12/15 11:25:46;;;;;;;25.13;9.00;;;11.60;99.90;;;;;;5072714;28;20056;-42
2021/12/15 11:28:15;;;;;;;23.35;9.55;;;11.60;99.90;;;;;;5085817;28;20075;-42
2021/12/15 11:30:52;;;;;;;;;;;11.70;99.90;;;;;;5092258;28;20020;-43
2021/12/15 11:33:21;;;;;;;17.35;7.00;;;11.60;99.90;;;;;;5090512;28;19915;-42
2021/12/15 11:35:50;;;;;;;;;;;11.60;99.90;;;;;;5091486;28;20130;-42
2021/12/15 11:38:18;;;;;;;17.95;7.60;;;11.60;99.90;;;;;;5091287;28;20309;-41
2021/12/15 11:41:00;;;;;;;20.65;8.60;;;11.60;99.90;;;;;;5087797;28;20028;-43
2021/12/15 11:43:49;;;;;;;16.92;8.27;;;11.60;99.90;;;;;;5089009;28;20539;-42
2021/12/15 11:46:22;;;;;;;20.70;6.85;;;11.60;99.90;;;;;;5090215;28;20101;-43
2021/12/15 11:48:51;;;;;;;20.40;7.63;;;11.60;99.90;;;;;;5088322;28;20375;-42
2021/12/15 11:51:40;;;;;;;13.68;6.00;;;11.60;99.90;;;;;;5090854;28;20131;-41
2021/12/15 11:54:19;;;;;;;17.90;6.57;;;11.70;99.90;;;;;;5088975;28;20154;-42
2021/12/15 11:56:47;;;;;;;21.67;7.13;;;11.70;99.90;;;;;;5088552;28;20048;-43
2021/12/15 11:59:23;;;;;;;13.15;6.53;;;11.70;99.90;;;;;;5090690;28;20048;-42
2021/12/15 12:01:59;;;;;;;14.93;6.63;;;11.70;99.90;;;;;;5088395;28;20024;-42
2021/12/15 12:04:58;;;;;;;16.73;6.65;;;11.70;99.90;;;;;;5088394;28;20095;-43
2021/12/15 12:07:33;;;;;;;14.40;6.95;;;11.80;99.90;;;;;;5071978;28;20060;-42
2021/12/15 12:10:21;;;;;;;24.15;7.50;;;11.70;99.90;;;;;;5090300;28;20020;-43
2021/12/15 12:12:53;;;;;;;18.25;8.63;;;11.70;99.90;;;;;;5088455;28;20029;-43
2021/12/15 12:15:25;;;;;;;20.38;7.57;;;11.70;99.90;;;;;;5090842;28;20047;-44
2021/12/15 12:17:54;;;;;;;13.73;7.90;;;11.70;99.90;;;;;;5090016;28;20035;-44
2021/12/15 12:20:26;;;;;;;14.07;6.78;;;11.60;99.90;;;;;;5088252;28;20066;-45
2021/12/15 12:22:53;;;;;;;27.90;7.25;;;11.60;99.90;;;;;;5090041;28;20024;-42
2021/12/15 12:25:24;;;;;;;18.13;7.10;;;11.60;99.90;;;;;;5090643;28;20012;-42
2021/12/15 12:27:52;;;;;;;22.25;6.15;;;11.60;99.90;;;;;;5090457;28;20080;-43
2021/12/15 12:30:23;;;;;;;25.93;8.93;;;11.60;99.90;;;;;;5087628;28;20023;-42
2021/12/15 12:32:48;;;;;;;15.68;6.47;;;11.70;99.90;;;;;;5092897;28;20040;-42
2021/12/15 12:35:18;;;;;;;8.60;4.57;;;11.60;99.90;;;;;;5094358;28;20016;-42
2021/12/15 12:37:51;;;;;;;17.63;8.20;;;11.60;99.90;;;;;;5093458;28;20042;-42
2021/12/15 12:40:29;;;;;;;15.23;6.57;;;11.60;99.90;;;;;;5094295;28;20070;-44
2021/12/15 12:42:56;;;;;;;17.42;7.40;;;11.60;99.90;;;;;;5093121;28;20085;-42
2021/12/15 12:45:39;;;;;;;13.93;6.70;;;11.60;99.90;;;;;;5094001;28;20487;-42
2021/12/15 12:48:33;;;;;;;15.30;7.63;;;11.60;99.90;;;;;;5094342;28;20527;-43
2021/12/15 12:59:29;;;;;;;17.90;6.47;;;11.70;99.90;;;;;;5092283;28;20402;-42
2021/12/15 13:01:55;;;;;;;;;;;11.80;99.90;;;;;;5092633;28;20042;-43
2021/12/15 13:04:21;;;;;;;18.90;5.70;;;11.70;99.90;;;;;;5090911;28;19938;-43
2021/12/15 13:06:47;;;;;;;35.70;6.78;;;11.80;99.90;;;;;;5092887;28;20024;-42
2021/12/15 13:09:17;;;;;;;13.50;5.90;;;11.70;99.90;;;;;;5094985;28;20401;-42
2021/12/15 13:11:47;;;;;;;13.55;5.35;;;11.70;99.90;;;;;;5093340;28;20028;-42
2021/12/15 13:14:16;;;;;;;11.27;5.72;;;11.70;99.90;;;;;;5095290;28;20024;-43
2021/12/15 13:16:53;;;;;;;;;;;11.70;99.90;;;;;;5095086;28;20032;-43
2021/12/15 13:19:33;;;;;;;11.40;5.28;;;11.70;99.90;;;;;;5092183;28;20002;-42
2021/12/15 13:30:53;;;;;;;9.57;4.68;;;11.70;99.90;;;;;;5077241;28;20058;-41
2021/12/15 13:33:32;;;;;;;14.13;5.00;;;11.70;99.90;;;;;;5091321;28;20419;-43
2021/12/15 13:36:11;;;;;;;;;;;11.60;99.90;;;;;;5090964;28;20230;-41
2021/12/15 13:39:03;;;;;;;9.80;3.92;;;11.60;99.90;;;;;;5092187;28;19911;-44
2021/12/15 13:41:38;;;;;;;9.38;4.20;;;11.60;99.90;;;;;;5090908;28;20024;-43
2021/12/15 13:44:06;;;;;;;8.73;4.07;;;11.60;99.90;;;;;;5088213;28;20036;-42
2021/12/15 13:46:36;;;;;;;8.98;4.07;;;11.70;99.90;;;;;;5085506;28;20020;-43
2021/12/15 13:49:36;;;;;;;9.15;3.17;;;11.90;99.90;;;;;;5090168;28;20032;-43
2021/12/15 13:52:29;;;;;;;5.65;2.88;;;12.10;99.90;;;;;;5082755;28;20076;-44
2021/12/15 13:55:16;;;;;;;7.22;3.35;;;12.10;99.90;;;;;;5092404;28;20063;-43
2021/12/15 13:57:44;;;;;;;9.05;3.08;;;12.00;99.90;;;;;;5102143;28;20020;-43
2021/12/15 14:00:22;;;;;;;7.22;3.60;;;11.80;99.90;;;;;;5103236;28;20059;-42
2021/12/15 14:03:07;;;;;;;6.63;3.38;;;11.70;99.90;;;;;;5089167;28;20020;-42
2021/12/15 14:05:38;;;;;;;9.25;2.97;;;11.60;99.90;;;;;;5090513;28;20096;-43
2021/12/15 14:08:06;;;;;;;7.45;2.80;;;11.60;99.90;;;;;;5089609;28;20049;-42
2021/12/15 14:10:34;;;;;;;6.97;2.95;;;11.50;99.90;;;;;;5092289;28;20023;-43
2021/12/15 14:13:03;;;;;;;4.30;2.53;;;11.50;99.90;;;;;;5091956;28;20028;-43
2021/12/15 14:15:38;;;;;;;7.05;2.53;;;11.50;99.90;;;;;;5092052;28;20032;-43
2021/12/15 14:18:42;;;;;;;6.15;2.20;;;11.50;99.90;;;;;;5083486;28;20429;-42
2021/12/15 14:21:15;;;;;;;3.13;1.70;;;11.50;99.90;;;;;;5069349;28;20661;-43